createdAt,value
2022-12-17T00:00:27.961Z,15.43
2022-12-17T00:03:16.611Z,15.70
2022-12-17T00:06:02.268Z,16.60
2022-12-17T00:08:48.112Z,13.55
2022-12-17T00:11:48.236Z,16.83
2022-12-17T00:14:33.680Z,14.50
2022-12-17T00:17:20.684Z,16.33
2022-12-17T00:20:06.175Z,16.02
2022-12-17T00:22:51.832Z,16.47
2022-12-17T00:25:38.965Z,14.03
2022-12-17T00:28:29.072Z,15.88
2022-12-17T00:31:14.600Z,14.77
2022-12-17T00:34:01.408Z,15.80
2022-12-17T00:36:47.054Z,13.40
2022-12-17T00:39:32.542Z,13.80
2022-12-17T00:42:18.312Z,14.18
2022-12-17T00:45:15.094Z,15.50
2022-12-17T00:48:00.996Z,14.70
2022-12-17T00:50:47.764Z,15.80
2022-12-17T00:53:33.727Z,14.80
2022-12-17T00:56:20.026Z,14.63
2022-12-17T00:59:05.547Z,15.82
2022-12-17T01:01:51.332Z,15.70
2022-12-17T01:04:38.007Z,14.50
2022-12-17T01:07:24.826Z,15.13
2022-12-17T01:10:10.557Z,16.70
2022-12-17T01:12:55.172Z,14.83
2022-12-17T01:15:41.698Z,15.33
2022-12-17T01:18:27.388Z,14.30
2022-12-17T01:21:15.208Z,16.52
2022-12-17T01:24:02.073Z,14.47
2022-12-17T01:26:47.553Z,16.83
2022-12-17T01:29:32.742Z,16.17
2022-12-17T01:32:18.128Z,15.32
2022-12-17T01:35:03.646Z,13.52
2022-12-17T01:37:49.020Z,14.60
2022-12-17T01:40:36.257Z,15.10
2022-12-17T01:43:21.906Z,16.70
2022-12-17T01:46:08.548Z,15.67
2022-12-17T01:49:00.623Z,15.80
2022-12-17T01:51:48.315Z,14.95
2022-12-17T01:54:34.841Z,14.43
2022-12-17T01:57:23.506Z,14.77
2022-12-17T02:00:14.889Z,14.73
2022-12-17T02:03:00.792Z,15.80
2022-12-17T02:05:52.585Z,15.25
2022-12-17T02:08:44.048Z,15.50
2022-12-17T02:11:36.945Z,15.20
2022-12-17T02:14:32.232Z,16.90
2022-12-17T02:17:22.364Z,15.98
2022-12-17T02:20:18.845Z,14.87
2022-12-17T02:23:14.929Z,13.93
2022-12-17T02:26:06.825Z,15.50
2022-12-17T02:28:57.052Z,14.33
2022-12-17T02:31:44.033Z,15.75
2022-12-17T02:34:44.460Z,14.90
2022-12-17T02:37:30.014Z,13.93
2022-12-17T02:40:16.243Z,13.40
2022-12-17T02:43:03.712Z,14.20
2022-12-17T02:45:51.984Z,14.00
2022-12-17T02:48:37.612Z,14.85
2022-12-17T02:51:23.931Z,15.37
2022-12-17T02:54:11.834Z,14.80
2022-12-17T02:56:58.011Z,17.93
2022-12-17T02:59:43.525Z,14.30
2022-12-17T03:02:30.640Z,14.90
2022-12-17T03:05:43.455Z,15.18
2022-12-17T09:49:36.985Z,13.97
2022-12-17T09:52:33.229Z,12.93
2022-12-17T09:55:19.458Z,13.57
2022-12-17T09:58:07.315Z,12.60
2022-12-17T10:00:57.667Z,13.00
2022-12-17T10:03:53.973Z,11.93
2022-12-17T10:06:48.374Z,13.33
2022-12-17T10:09:47.316Z,12.30
2022-12-17T10:12:34.993Z,13.68
2022-12-17T10:15:20.570Z,12.73
2022-12-17T10:18:06.136Z,12.10
2022-12-17T10:20:56.608Z,13.37
2022-12-17T10:23:44.897Z,12.50
2022-12-17T10:26:36.144Z,12.90
2022-12-17T10:29:23.814Z,11.70
2022-12-17T10:32:09.544Z,11.87
2022-12-17T10:35:01.761Z,11.70
2022-12-17T10:37:52.676Z,12.47
2022-12-17T10:40:44.710Z,12.23
2022-12-17T10:43:45.040Z,13.80
2022-12-17T10:46:31.336Z,12.77
2022-12-17T10:49:24.149Z,12.90
2022-12-17T10:52:09.836Z,12.50
2022-12-17T10:54:55.761Z,12.95
2022-12-17T10:57:49.059Z,12.80
2022-12-17T11:00:45.822Z,14.30
2022-12-17T11:03:48.085Z,14.30
2022-12-17T11:06:42.289Z,12.90
2022-12-17T11:09:35.694Z,12.80
2022-12-17T11:12:30.358Z,14.10
2022-12-17T11:15:26.005Z,14.33
2022-12-17T11:18:12.048Z,12.82
2022-12-17T11:21:06.504Z,12.82
2022-12-17T11:23:55.019Z,13.70
2022-12-17T11:26:43.649Z,13.67
2022-12-17T11:29:32.263Z,13.13
2022-12-17T11:32:32.943Z,13.03
2022-12-17T11:35:24.660Z,15.13
2022-12-17T11:38:17.675Z,15.70
2022-12-17T11:41:08.260Z,14.15
2022-12-17T11:44:03.468Z,15.05
2022-12-17T11:47:00.251Z,15.33
2022-12-17T11:49:57.081Z,16.17
2022-12-17T11:52:49.817Z,15.45
2022-12-17T11:55:42.071Z,16.70
2022-12-17T11:58:35.802Z,17.30
2022-12-17T12:01:32.541Z,18.57
2022-12-17T12:04:31.588Z,18.63
2022-12-17T12:07:26.292Z,16.77
2022-12-17T12:10:17.900Z,15.20
2022-12-17T12:13:16.539Z,18.10
2022-12-17T12:16:14.187Z,15.90
2022-12-17T12:19:07.860Z,16.37
2022-12-17T12:21:59.369Z,16.33
2022-12-17T12:25:01.107Z,16.80
2022-12-17T12:27:53.220Z,16.60
2022-12-17T12:30:41.659Z,19.03
2022-12-17T12:33:39.356Z,19.00
2022-12-17T12:36:29.519Z,18.80
2022-12-17T12:39:16.573Z,18.00
2022-12-17T12:42:10.326Z,19.17
2022-12-17T12:45:04.301Z,19.60
2022-12-17T12:47:59.082Z,19.10
2022-12-17T12:50:51.351Z,19.43
2022-12-17T12:53:39.590Z,18.60
2022-12-17T12:56:45.075Z,20.55
2022-12-17T12:59:44.036Z,18.73
2022-12-17T13:02:43.087Z,22.07
2022-12-17T13:05:33.687Z,22.00
2022-12-17T13:08:19.742Z,19.17
2022-12-17T13:10:48.938Z,19.88
2022-12-17T13:13:31.927Z,18.67
2022-12-17T13:16:06.140Z,19.77
2022-12-17T13:18:36.992Z,20.03
2022-12-17T13:21:07.408Z,23.10
2022-12-17T13:23:37.245Z,22.50
2022-12-17T13:26:17.258Z,20.87
2022-12-17T13:28:59.025Z,21.30
2022-12-17T13:31:31.453Z,21.00
2022-12-17T13:34:09.365Z,21.57
2022-12-17T13:36:48.893Z,20.40
2022-12-17T13:39:34.241Z,20.93
2022-12-17T13:42:02.512Z,21.27
2022-12-17T13:44:37.202Z,22.37
2022-12-17T13:47:07.694Z,21.07
2022-12-17T13:49:35.647Z,22.30
2022-12-17T13:52:11.202Z,22.37
2022-12-17T13:54:40.072Z,21.73
2022-12-17T13:57:10.419Z,22.30
2022-12-17T13:59:39.415Z,24.57
2022-12-17T14:02:26.075Z,22.57
2022-12-17T14:04:54.770Z,24.00
2022-12-17T14:07:23.457Z,22.93
2022-12-17T14:09:51.617Z,22.93
2022-12-17T14:12:25.716Z,20.70
2022-12-17T14:14:57.352Z,22.40
2022-12-17T14:17:28.982Z,24.87
2022-12-17T14:20:03.102Z,20.47
2022-12-17T14:22:36.292Z,20.67
2022-12-17T14:25:07.203Z,21.77
2022-12-17T14:27:37.389Z,20.80
2022-12-17T14:30:23.320Z,21.02
2022-12-17T14:32:52.756Z,22.10
2022-12-17T14:35:25.507Z,21.90
2022-12-17T14:37:53.598Z,23.23
2022-12-17T14:40:23.153Z,21.38
2022-12-17T14:42:51.766Z,22.98
2022-12-17T14:45:25.115Z,21.77
2022-12-17T14:48:00.539Z,21.55
2022-12-17T14:50:32.658Z,22.73
2022-12-17T14:53:01.593Z,22.75
2022-12-17T14:55:33.114Z,21.20
2022-12-17T14:58:17.082Z,22.35
2022-12-17T15:00:47.669Z,21.42
2022-12-17T15:03:22.211Z,22.90
2022-12-17T15:05:54.555Z,21.27
2022-12-17T15:08:22.694Z,23.40
2022-12-17T15:10:51.057Z,25.30
2022-12-17T15:13:18.951Z,24.80
2022-12-17T15:15:47.130Z,22.77
2022-12-17T15:18:15.280Z,23.35
2022-12-17T15:20:44.648Z,22.55
2022-12-17T15:23:18.624Z,24.80
2022-12-17T15:25:48.683Z,23.80
2022-12-17T15:28:17.699Z,23.92
2022-12-17T15:30:46.012Z,24.65
2022-12-17T15:33:15.952Z,25.20
2022-12-17T15:35:45.641Z,24.92
2022-12-17T15:38:14.172Z,24.65
2022-12-17T15:40:42.413Z,26.13
2022-12-17T15:43:13.792Z,25.50
2022-12-17T15:45:43.447Z,26.33
2022-12-17T15:48:12.446Z,27.35
2022-12-17T15:50:41.289Z,26.77
2022-12-17T15:53:10.921Z,27.67
2022-12-17T15:55:39.051Z,26.77
2022-12-17T15:58:07.979Z,27.65
2022-12-17T16:00:37.639Z,29.95
2022-12-17T16:03:05.634Z,28.95
2022-12-17T16:05:33.650Z,28.40
2022-12-17T16:08:02.805Z,29.50
2022-12-17T16:10:32.262Z,28.60
2022-12-17T16:13:00.351Z,28.23
2022-12-17T16:15:28.589Z,27.05
2022-12-17T16:17:56.736Z,28.40
2022-12-17T16:20:25.662Z,25.13
2022-12-17T16:22:54.224Z,28.67
2022-12-17T16:25:22.459Z,30.23
2022-12-17T16:27:51.874Z,31.63
2022-12-17T16:30:20.055Z,30.40
2022-12-17T16:32:47.984Z,27.15
2022-12-17T16:35:16.217Z,27.17
2022-12-17T16:37:44.109Z,29.27
2022-12-17T16:40:13.230Z,28.80
2022-12-17T16:42:41.419Z,30.67
2022-12-17T16:45:11.733Z,32.40
2022-12-17T16:47:39.881Z,31.40
2022-12-17T16:50:08.071Z,31.33
2022-12-17T16:52:36.433Z,31.17
2022-12-17T16:55:04.498Z,28.63
2022-12-17T16:57:32.549Z,28.17
2022-12-17T17:00:00.568Z,28.80
2022-12-17T17:02:30.242Z,30.35
2022-12-17T17:04:58.330Z,29.75
2022-12-17T17:07:26.269Z,32.95
2022-12-17T17:09:54.564Z,31.10
2022-12-17T17:12:23.318Z,31.77
2022-12-17T17:14:51.410Z,31.73
2022-12-17T17:17:19.439Z,30.83
2022-12-17T17:20:10.078Z,30.08
2022-12-17T17:22:37.991Z,26.00
2022-12-17T17:25:06.987Z,24.17
2022-12-17T17:27:35.199Z,25.77
2022-12-17T17:30:04.117Z,23.55
2022-12-17T17:32:32.330Z,22.98
2022-12-17T17:35:00.397Z,24.17
2022-12-17T17:37:29.780Z,21.13
2022-12-17T17:39:58.003Z,19.05
2022-12-17T17:42:26.313Z,20.67
2022-12-17T17:44:54.502Z,21.75
2022-12-17T17:47:22.839Z,22.15
2022-12-17T17:49:50.721Z,21.90
2022-12-17T17:52:18.963Z,20.85
2022-12-17T17:54:48.733Z,19.70
2022-12-17T17:57:16.858Z,21.80
2022-12-17T17:59:44.886Z,19.92
2022-12-17T18:02:13.017Z,20.52
2022-12-17T18:04:41.215Z,20.15
2022-12-17T18:07:25.567Z,18.80
2022-12-17T18:09:55.863Z,19.65
2022-12-17T18:12:42.401Z,21.27
2022-12-17T18:15:14.670Z,20.05
2022-12-17T18:17:43.659Z,19.98
2022-12-17T18:20:12.278Z,21.83
2022-12-17T18:22:40.658Z,20.55
2022-12-17T18:25:10.448Z,21.15
2022-12-17T18:27:38.652Z,20.73
2022-12-17T18:30:07.695Z,22.10
2022-12-17T18:32:35.679Z,22.92
2022-12-17T18:35:03.865Z,20.30
2022-12-17T18:37:32.022Z,22.63
2022-12-17T18:40:00.105Z,22.40
2022-12-17T18:42:46.858Z,25.40
2022-12-17T18:45:14.792Z,22.90
2022-12-17T18:47:44.754Z,22.40
2022-12-17T18:50:13.645Z,21.30
2022-12-17T18:52:41.952Z,21.85
2022-12-17T18:55:09.867Z,24.10
2022-12-17T18:57:39.248Z,22.92
2022-12-17T19:00:09.507Z,22.98
2022-12-17T19:02:37.689Z,21.38
2022-12-17T19:05:06.438Z,23.13
2022-12-17T19:07:34.560Z,24.25
2022-12-17T19:10:02.609Z,23.48
2022-12-17T19:12:30.649Z,26.17
2022-12-17T19:15:00.145Z,29.75
2022-12-17T19:17:28.249Z,23.60
2022-12-17T19:19:56.447Z,26.55
2022-12-17T19:22:25.177Z,23.48
2022-12-17T19:24:53.077Z,25.17
2022-12-17T19:27:21.045Z,23.77
2022-12-17T19:29:49.960Z,28.63
2022-12-17T19:32:19.567Z,24.90
2022-12-17T19:34:47.507Z,24.60
2022-12-17T19:37:15.650Z,26.10
2022-12-17T19:39:43.700Z,23.92
2022-12-17T19:42:24.600Z,23.30
2022-12-17T19:44:54.215Z,24.08
2022-12-17T19:47:24.478Z,22.98
2022-12-17T19:49:52.744Z,25.60
2022-12-17T19:52:20.891Z,25.52
2022-12-17T19:54:48.850Z,25.63
2022-12-17T19:57:16.926Z,27.77
2022-12-17T19:59:44.837Z,23.98
2022-12-17T20:02:16.450Z,26.35
2022-12-17T20:04:46.611Z,26.05
2022-12-17T20:07:15.165Z,25.30
2022-12-17T20:09:44.779Z,24.35
2022-12-17T20:12:13.464Z,23.08
2022-12-17T20:14:41.435Z,23.90
2022-12-17T20:17:09.431Z,22.63
2022-12-17T20:19:37.654Z,22.48
2022-12-17T20:22:07.730Z,19.67
2022-12-17T20:24:37.198Z,22.88
2022-12-17T20:27:05.828Z,21.10
2022-12-17T20:29:33.813Z,18.63
2022-12-17T20:32:01.965Z,20.65
2022-12-17T20:34:30.222Z,22.20
2022-12-17T20:36:58.518Z,22.60
2022-12-17T20:39:28.518Z,22.55
2022-12-17T20:41:57.939Z,21.98
2022-12-17T20:44:26.283Z,20.40
2022-12-17T20:46:54.346Z,21.13
2022-12-17T20:49:22.658Z,21.15
2022-12-17T20:51:50.734Z,19.17
2022-12-17T20:54:19.002Z,20.00
2022-12-17T20:56:48.319Z,20.55
2022-12-17T20:59:18.555Z,18.92
2022-12-17T21:01:51.627Z,16.98
2022-12-17T21:04:24.000Z,18.23
2022-12-17T21:06:53.197Z,17.88
2022-12-17T21:09:22.527Z,18.33
2022-12-17T21:11:52.048Z,18.95
2022-12-17T21:14:20.586Z,18.30
2022-12-17T21:16:48.893Z,19.05
2022-12-17T21:19:18.738Z,16.98
2022-12-17T21:21:46.866Z,17.73
2022-12-17T21:24:15.033Z,17.67
2022-12-17T21:26:44.621Z,16.08
2022-12-17T21:29:14.656Z,14.85
2022-12-17T21:31:45.093Z,15.13
2022-12-17T21:34:15.520Z,13.88
2022-12-17T21:36:43.715Z,15.02
2022-12-17T21:39:14.070Z,15.98
2022-12-17T21:42:04.042Z,14.23
2022-12-17T21:44:33.476Z,14.90
2022-12-17T21:47:02.167Z,16.67
2022-12-17T21:49:30.553Z,16.95
2022-12-17T21:52:00.141Z,17.58
2022-12-17T21:54:28.254Z,16.50
2022-12-17T21:56:56.477Z,14.20
2022-12-17T21:59:24.526Z,15.48
2022-12-17T22:01:57.396Z,15.40
2022-12-17T22:04:26.651Z,15.93
2022-12-17T22:07:02.232Z,15.57
2022-12-17T22:09:58.500Z,14.75
2022-12-17T22:12:47.151Z,14.30
2022-12-17T22:15:15.217Z,14.70
2022-12-17T22:17:45.016Z,15.50
2022-12-17T22:20:13.592Z,14.68
2022-12-17T22:22:41.783Z,14.07
2022-12-17T22:25:12.249Z,14.50
2022-12-17T22:27:40.960Z,14.63
2022-12-17T22:30:31.064Z,14.95
2022-12-17T22:33:00.590Z,15.73
2022-12-17T22:37:18.843Z,14.10
2022-12-17T22:40:04.781Z,15.43
2022-12-17T22:44:36.891Z,18.30
2022-12-17T22:44:46.624Z,16.25
2022-12-17T22:47:07.000Z,16.88
2022-12-17T22:49:36.589Z,16.55
2022-12-17T22:52:04.601Z,15.93
2022-12-17T22:54:32.776Z,14.65
2022-12-17T22:57:26.526Z,13.65
2022-12-17T22:59:49.300Z,14.43
2022-12-17T23:02:17.281Z,13.85
2022-12-17T23:04:46.878Z,15.32
2022-12-17T23:07:15.039Z,15.68
2022-12-17T23:09:43.064Z,15.68
2022-12-17T23:12:24.987Z,14.57
2022-12-17T23:14:52.989Z,13.90
2022-12-17T23:17:21.001Z,16.05
2022-12-17T23:19:50.306Z,16.60
2022-12-17T23:22:22.124Z,14.75
2022-12-17T23:24:50.828Z,16.73
2022-12-17T23:27:18.710Z,16.92
2022-12-17T23:29:46.886Z,17.25
2022-12-17T23:32:14.825Z,17.98
2022-12-17T23:34:42.722Z,16.42
2022-12-17T23:37:12.129Z,16.05
2022-12-17T23:39:40.097Z,17.75
2022-12-17T23:42:08.044Z,15.88
2022-12-17T23:44:36.275Z,16.20
2022-12-17T23:47:04.246Z,17.10
2022-12-17T23:49:32.521Z,18.77
2022-12-17T23:52:00.412Z,19.30
2022-12-17T23:54:29.730Z,18.00
2022-12-17T23:56:57.810Z,17.30
2022-12-17T23:59:25.717Z,17.58
